createdAt,value
2018-06-03T00:00:46.624Z,6.03
2018-06-03T00:03:14.188Z,5.67
2018-06-03T00:05:41.792Z,6.07
2018-06-03T00:08:09.401Z,6.27
2018-06-03T00:10:36.992Z,6.43
2018-06-03T00:13:05.370Z,5.90
2018-06-03T00:15:33.698Z,5.90
2018-06-03T00:18:01.298Z,6.40
2018-06-03T00:20:40.703Z,6.67
2018-06-03T00:23:08.356Z,6.40
2018-06-03T00:25:35.950Z,6.50
2018-06-03T00:28:03.585Z,6.83
2018-06-03T00:30:31.204Z,6.50
2018-06-03T00:32:59.556Z,6.33
2018-06-03T00:35:27.138Z,6.63
2018-06-03T00:37:55.487Z,6.10
2018-06-03T00:40:23.185Z,6.50
2018-06-03T00:42:50.739Z,6.47
2018-06-03T00:45:19.128Z,6.57
2018-06-03T00:47:46.751Z,6.57
2018-06-03T00:50:14.330Z,6.60
2018-06-03T00:52:42.733Z,6.40
2018-06-03T00:55:10.363Z,5.80
2018-06-03T00:57:37.981Z,5.50
2018-06-03T01:00:05.578Z,5.90
2018-06-03T01:02:33.211Z,6.13
2018-06-03T01:05:00.799Z,5.82
2018-06-03T01:07:28.408Z,6.43
2018-06-03T01:09:55.981Z,7.20
2018-06-03T01:12:23.608Z,6.20
2018-06-03T01:14:51.328Z,6.00
2018-06-03T01:17:18.955Z,6.20
2018-06-03T01:19:46.590Z,5.97
2018-06-03T01:22:15.002Z,6.10
2018-06-03T01:24:42.629Z,6.00
2018-06-03T01:27:10.243Z,6.60
2018-06-03T01:29:37.840Z,5.87
2018-06-03T01:32:06.198Z,6.30
2018-06-03T01:34:33.815Z,7.00
2018-06-03T01:37:01.457Z,7.33
2018-06-03T01:39:29.059Z,6.53
2018-06-03T01:41:56.682Z,6.20
2018-06-03T01:44:25.033Z,6.33
2018-06-03T01:46:53.444Z,6.47
2018-06-03T01:49:21.051Z,5.87
2018-06-03T01:51:48.685Z,6.80
2018-06-03T01:54:16.278Z,6.30
2018-06-03T01:56:43.859Z,5.80
2018-06-03T01:59:11.451Z,6.80
2018-06-03T02:01:39.036Z,5.97
2018-06-03T02:04:06.679Z,6.43
2018-06-03T02:06:34.288Z,6.13
2018-06-03T02:09:01.919Z,6.43
2018-06-03T02:11:29.525Z,6.80
2018-06-03T02:13:57.884Z,6.53
2018-06-03T02:16:25.483Z,7.27
2018-06-03T02:18:53.121Z,7.00
2018-06-03T02:21:20.754Z,7.13
2018-06-03T02:23:48.288Z,7.37
2018-06-03T02:26:15.937Z,7.40
2018-06-03T02:28:43.558Z,7.10
2018-06-03T02:31:11.960Z,7.33
2018-06-03T02:33:39.543Z,8.00
2018-06-03T02:36:07.131Z,8.03
2018-06-03T02:38:34.751Z,7.00
2018-06-03T02:41:02.383Z,7.50
2018-06-03T02:43:30.011Z,7.00
2018-06-03T02:45:57.629Z,7.70
2018-06-03T02:48:25.269Z,8.50
2018-06-03T02:50:52.881Z,7.73
2018-06-03T02:53:20.499Z,7.67
2018-06-03T02:55:48.889Z,7.87
2018-06-03T02:58:17.249Z,8.40
2018-06-03T03:00:45.602Z,7.53
2018-06-03T03:03:13.210Z,7.80
2018-06-03T03:05:40.850Z,7.20
2018-06-03T03:08:09.237Z,7.27
2018-06-03T03:10:37.645Z,7.40
2018-06-03T03:13:05.267Z,7.00
2018-06-03T03:15:32.890Z,7.43
2018-06-03T03:18:00.488Z,7.40
2018-06-03T03:20:28.092Z,7.67
2018-06-03T03:22:55.704Z,8.13
2018-06-03T03:25:23.322Z,7.55
2018-06-03T03:27:50.913Z,7.90
2018-06-03T03:30:18.535Z,7.47
2018-06-03T03:32:46.164Z,7.63
2018-06-03T03:35:14.521Z,6.75
2018-06-03T03:37:42.123Z,8.20
2018-06-03T03:40:09.717Z,8.30
2018-06-03T03:42:37.341Z,6.60
2018-06-03T03:45:05.227Z,7.47
2018-06-03T03:47:32.849Z,7.17
2018-06-03T03:50:00.461Z,7.23
2018-06-03T03:52:28.067Z,7.53
2018-06-03T03:54:55.675Z,6.70
2018-06-03T03:57:23.293Z,6.90
2018-06-03T03:59:51.674Z,6.43
2018-06-03T04:02:20.031Z,6.87
2018-06-03T04:04:47.592Z,6.27
2018-06-03T04:07:15.206Z,7.90
2018-06-03T04:09:42.807Z,6.87
2018-06-03T04:12:10.376Z,7.30
2018-06-03T04:14:37.996Z,7.17
2018-06-03T04:17:44.013Z,6.33
2018-06-03T04:20:12.451Z,6.40
2018-06-03T04:22:40.948Z,7.60
2018-06-03T04:25:09.552Z,7.50
2018-06-03T04:27:38.051Z,7.73
2018-06-03T04:30:06.690Z,7.87
2018-06-03T04:32:35.164Z,8.13
2018-06-03T04:35:03.683Z,8.33
2018-06-03T04:37:32.254Z,8.33
2018-06-03T04:40:00.669Z,8.37
2018-06-03T04:42:29.193Z,8.07
2018-06-03T04:44:57.687Z,7.70
2018-06-03T04:47:26.139Z,7.40
2018-06-03T04:49:54.708Z,6.30
2018-06-03T04:52:23.280Z,5.70
2018-06-03T04:54:51.959Z,6.53
2018-06-03T04:57:20.399Z,6.57
2018-06-03T04:59:48.971Z,6.13
2018-06-03T05:02:17.478Z,6.67
2018-06-03T05:04:46.715Z,6.37
2018-06-03T05:07:15.273Z,6.23
2018-06-03T05:09:43.865Z,5.80
2018-06-03T05:12:12.333Z,5.87
2018-06-03T05:14:41.201Z,6.00
2018-06-03T05:17:09.639Z,6.45
2018-06-03T05:19:38.193Z,5.58
2018-06-03T05:22:06.663Z,6.10
2018-06-03T05:24:35.102Z,5.30
2018-06-03T05:27:03.641Z,5.70
2018-06-03T05:29:31.786Z,5.28
2018-06-03T05:32:00.241Z,5.25
2018-06-03T05:34:28.803Z,4.55
2018-06-03T05:36:57.323Z,5.17
2018-06-03T05:39:25.873Z,6.20
2018-06-03T05:41:54.383Z,6.12
2018-06-03T05:44:22.856Z,5.55
2018-06-03T05:46:51.355Z,6.10
2018-06-03T05:49:19.883Z,6.87
2018-06-03T05:51:48.925Z,6.30
2018-06-03T05:54:17.371Z,6.15
2018-06-03T05:56:46.151Z,7.10
2018-06-03T05:59:14.621Z,6.03
2018-06-03T06:01:43.213Z,8.03
2018-06-03T06:04:11.705Z,5.53
2018-06-03T06:06:40.200Z,6.28
2018-06-03T06:09:08.753Z,5.28
2018-06-03T06:11:36.929Z,6.05
2018-06-03T06:14:05.560Z,5.40
2018-06-03T06:16:35.779Z,5.67
2018-06-03T06:19:04.333Z,5.60
2018-06-03T06:21:32.782Z,6.10
2018-06-03T06:24:01.267Z,6.05
2018-06-03T06:26:29.995Z,5.80
2018-06-03T06:28:58.787Z,5.80
2018-06-03T06:31:28.261Z,5.75
2018-06-03T06:33:56.977Z,5.62
2018-06-03T06:36:25.830Z,6.58
2018-06-03T06:38:54.463Z,5.80
2018-06-03T06:41:23.181Z,5.22
2018-06-03T06:43:51.582Z,5.95
2018-06-03T06:46:20.379Z,5.67
2018-06-03T06:48:48.901Z,5.08
2018-06-03T06:51:17.713Z,4.72
2018-06-03T06:53:46.430Z,5.42
2018-06-03T06:56:15.262Z,5.10
2018-06-03T06:58:44.000Z,5.62
2018-06-03T07:01:12.868Z,5.28
2018-06-03T07:03:41.692Z,5.15
2018-06-03T07:06:10.567Z,5.12
2018-06-03T07:08:40.096Z,5.22
2018-06-03T07:11:09.181Z,6.30
2018-06-03T07:13:38.328Z,5.03
2018-06-03T07:16:07.128Z,5.50
2018-06-03T07:18:36.031Z,5.35
2018-06-03T07:21:04.892Z,5.35
2018-06-03T07:23:33.863Z,5.35
2018-06-03T07:26:03.600Z,5.00
2018-06-03T07:28:32.378Z,4.85
2018-06-03T07:31:01.231Z,4.50
2018-06-03T07:33:30.022Z,5.03
2018-06-03T07:35:58.799Z,4.80
2018-06-03T07:38:27.662Z,5.08
2018-06-03T07:40:56.531Z,4.83
2018-06-03T07:43:25.312Z,4.90
2018-06-03T07:48:47.898Z,4.34
2018-06-03T07:51:16.461Z,4.90
2018-06-03T07:53:44.924Z,5.65
2018-06-03T07:56:13.466Z,5.37
2018-06-03T07:58:41.956Z,4.42
2018-06-03T08:01:10.581Z,5.30
2018-06-03T08:03:39.139Z,5.25
2018-06-03T08:06:07.652Z,4.47
2018-06-03T08:08:36.255Z,4.97
2018-06-03T08:11:04.794Z,4.70
2018-06-03T08:13:33.265Z,5.25
2018-06-03T08:16:01.883Z,4.57
2018-06-03T08:18:30.438Z,4.20
2018-06-03T08:20:58.957Z,4.78
2018-06-03T08:23:27.641Z,4.30
2018-06-03T08:25:56.917Z,5.02
2018-06-03T08:28:25.359Z,5.25
2018-06-03T08:30:53.827Z,5.42
2018-06-03T08:33:22.318Z,4.60
2018-06-03T08:35:50.767Z,4.45
2018-06-03T08:38:19.238Z,4.72
2018-06-03T08:40:47.756Z,4.25
2018-06-03T08:43:16.254Z,4.65
2018-06-03T08:45:44.762Z,3.90
2018-06-03T08:48:13.545Z,4.65
2018-06-03T08:50:42.331Z,4.20
2018-06-03T08:53:11.118Z,3.70
2018-06-03T08:55:40.053Z,4.55
2018-06-03T08:58:08.837Z,4.15
2018-06-03T09:00:37.681Z,4.03
2018-06-03T09:03:06.559Z,3.65
2018-06-03T09:05:35.390Z,3.87
2018-06-03T09:08:04.129Z,4.10
2018-06-03T09:10:33.007Z,3.77
2018-06-03T09:13:01.905Z,3.55
2018-06-03T09:15:30.713Z,3.20
2018-06-03T09:17:59.448Z,3.20
2018-06-03T09:20:28.330Z,4.20
2018-06-03T09:22:57.128Z,4.20
2018-06-03T09:25:26.016Z,4.12
2018-06-03T09:27:54.744Z,3.75
2018-06-03T09:30:23.264Z,3.72
2018-06-03T09:32:52.222Z,4.30
2018-06-03T09:35:21.054Z,3.77
2018-06-03T09:37:49.906Z,4.05
2018-06-03T09:40:18.618Z,3.87
2018-06-03T09:42:47.474Z,3.87
2018-06-03T09:45:16.336Z,4.20
2018-06-03T09:47:45.282Z,4.30
2018-06-03T09:50:14.314Z,3.30
2018-06-03T09:52:43.350Z,3.70
2018-06-03T09:55:12.098Z,3.93
2018-06-03T09:57:40.892Z,3.90
2018-06-03T10:00:13.916Z,3.67
2018-06-03T10:02:42.798Z,3.57
2018-06-03T10:05:11.650Z,3.50
2018-06-03T10:07:40.498Z,3.33
2018-06-03T10:10:09.338Z,3.20
2018-06-03T10:12:38.152Z,3.00
2018-06-03T10:15:07.035Z,3.00
2018-06-03T10:17:35.832Z,3.20
2018-06-03T10:20:04.638Z,3.77
2018-06-03T10:22:33.688Z,3.17
2018-06-03T10:25:02.746Z,3.70
2018-06-03T10:27:31.559Z,3.17
2018-06-03T10:30:00.383Z,3.60
2018-06-03T10:32:29.101Z,3.50
2018-06-03T10:34:57.941Z,3.55
2018-06-03T10:37:26.765Z,3.40
2018-06-03T10:39:55.735Z,3.42
2018-06-03T10:42:24.527Z,3.75
2018-06-03T10:44:53.434Z,2.98
2018-06-03T10:47:22.230Z,3.20
2018-06-03T10:49:50.922Z,2.60
2018-06-03T10:52:19.714Z,2.85
2018-06-03T10:54:48.512Z,2.77
2018-06-03T10:57:17.386Z,2.90
2018-06-03T10:59:47.114Z,2.95
2018-06-03T11:02:18.986Z,2.60
2018-06-03T11:04:47.910Z,2.60
2018-06-03T11:07:16.806Z,2.80
2018-06-03T11:09:45.696Z,2.70
2018-06-03T11:12:14.568Z,2.50
2018-06-03T11:14:43.376Z,2.58
2018-06-03T11:17:12.255Z,2.85
2018-06-03T11:19:41.182Z,2.60
2018-06-03T11:22:11.504Z,2.58
2018-06-03T11:24:42.331Z,2.80
2018-06-03T11:27:11.765Z,2.87
2018-06-03T11:29:40.610Z,2.58
2018-06-03T11:32:09.838Z,2.67
2018-06-03T11:34:38.639Z,2.62
2018-06-03T11:37:07.483Z,2.50
2018-06-03T11:39:36.338Z,2.70
2018-06-03T11:42:05.213Z,2.65
2018-06-03T11:44:34.257Z,2.67
2018-06-03T11:47:03.058Z,2.27
2018-06-03T11:49:31.801Z,2.30
2018-06-03T11:52:05.911Z,2.50
2018-06-03T11:54:37.967Z,2.35
2018-06-03T11:57:19.780Z,2.30
2018-06-03T11:59:48.693Z,2.42
2018-06-03T12:02:18.751Z,2.50
2018-06-03T12:04:47.613Z,2.10
2018-06-03T12:07:16.445Z,2.20
2018-06-03T12:09:45.174Z,2.45
2018-06-03T12:12:14.071Z,2.10
2018-06-03T12:14:42.869Z,2.25
2018-06-03T12:17:11.776Z,2.40
2018-06-03T12:19:40.718Z,2.05
2018-06-03T12:22:09.534Z,2.10
2018-06-03T12:24:38.390Z,1.82
2018-06-03T12:27:07.140Z,2.30
2018-06-03T12:29:35.784Z,2.52
2018-06-03T12:32:04.626Z,2.20
2018-06-03T12:34:33.478Z,2.22
2018-06-03T12:37:02.170Z,2.20
2018-06-03T12:39:30.859Z,2.37
2018-06-03T12:41:59.584Z,2.45
2018-06-03T12:44:28.615Z,2.50
2018-06-03T12:46:57.740Z,2.15
2018-06-03T12:49:26.446Z,2.02
2018-06-03T12:51:55.339Z,2.62
2018-06-03T12:54:24.490Z,2.55
2018-06-03T12:56:53.987Z,2.57
2018-06-03T12:59:22.774Z,2.50
2018-06-03T13:01:51.565Z,2.27
2018-06-03T13:04:20.307Z,2.40
2018-06-03T13:06:49.159Z,2.17
2018-06-03T13:09:17.986Z,2.40
2018-06-03T13:11:46.733Z,2.67
2018-06-03T13:14:15.521Z,2.50
2018-06-03T13:16:44.249Z,2.70
2018-06-03T13:19:13.136Z,2.37
2018-06-03T13:21:41.898Z,2.40
2018-06-03T13:24:10.601Z,2.65
2018-06-03T13:26:39.434Z,2.20
2018-06-03T13:29:08.292Z,2.50
2018-06-03T13:31:37.066Z,2.80
2018-06-03T13:34:07.997Z,2.40
2018-06-03T13:36:36.804Z,2.95
2018-06-03T13:39:11.701Z,2.50
2018-06-03T13:41:54.041Z,2.80
2018-06-03T13:44:22.838Z,2.50
2018-06-03T13:46:51.753Z,2.60
2018-06-03T13:49:20.563Z,2.40
2018-06-03T13:52:02.045Z,2.40
2018-06-03T13:54:30.769Z,2.37
2018-06-03T13:56:59.511Z,2.30
2018-06-03T13:59:28.271Z,2.35
2018-06-03T14:01:56.979Z,2.40
2018-06-03T14:04:37.765Z,2.35
2018-06-03T14:07:06.593Z,2.27
2018-06-03T14:09:35.344Z,2.05
2018-06-03T14:12:04.089Z,2.30
2018-06-03T14:14:38.746Z,2.30
2018-06-03T14:17:07.638Z,2.17
2018-06-03T14:19:36.455Z,2.30
2018-06-03T14:22:11.338Z,2.10
2018-06-03T14:24:40.257Z,1.82
2018-06-03T14:27:09.997Z,2.20
2018-06-03T14:29:38.687Z,2.10
2018-06-03T14:32:07.210Z,2.35
2018-06-03T14:34:36.000Z,2.52
2018-06-03T14:37:08.052Z,2.30
2018-06-03T14:39:36.814Z,2.08
2018-06-03T14:42:05.783Z,2.20
2018-06-03T14:44:38.169Z,2.30
2018-06-03T14:47:14.344Z,1.97
2018-06-03T14:49:43.129Z,2.10
2018-06-03T14:52:18.352Z,2.20
2018-06-03T14:54:47.293Z,1.90
2018-06-03T14:57:16.227Z,2.02
2018-06-03T14:59:45.082Z,1.90
2018-06-03T15:02:13.892Z,1.87
2018-06-03T15:04:42.745Z,1.77
2018-06-03T15:07:11.529Z,2.35
2018-06-03T15:09:40.250Z,2.05
2018-06-03T15:12:09.102Z,2.20
2018-06-03T15:14:37.979Z,3.27
2018-06-03T15:17:06.837Z,1.97
2018-06-03T15:19:35.561Z,3.22
2018-06-03T15:22:04.386Z,2.35
2018-06-03T15:24:33.219Z,2.20
2018-06-03T15:27:02.087Z,2.77
2018-06-03T15:29:30.992Z,2.30
2018-06-03T15:31:59.962Z,2.40
2018-06-03T15:34:28.874Z,2.30
2018-06-03T15:36:58.567Z,2.37
2018-06-03T15:39:27.465Z,2.15
2018-06-03T15:41:56.675Z,2.30
2018-06-03T15:44:25.461Z,2.50
2018-06-03T15:46:54.529Z,2.27
2018-06-03T15:49:23.493Z,2.20
2018-06-03T15:51:52.549Z,2.83
2018-06-03T15:54:21.443Z,2.30
2018-06-03T15:56:50.314Z,2.33
2018-06-03T15:59:19.308Z,2.30
2018-06-03T16:01:48.114Z,2.20
2018-06-03T16:04:17.151Z,2.50
2018-06-03T16:06:46.101Z,2.55
2018-06-03T16:09:14.860Z,2.05
2018-06-03T16:11:43.856Z,2.37
2018-06-03T16:14:12.709Z,2.35
2018-06-03T16:16:55.962Z,2.20
2018-06-03T16:19:24.888Z,2.05
2018-06-03T16:21:53.725Z,2.47
2018-06-03T16:24:22.650Z,2.62
2018-06-03T16:27:03.676Z,2.30
2018-06-03T16:29:32.836Z,2.60
2018-06-03T16:32:01.659Z,2.22
2018-06-03T16:34:30.532Z,2.25
2018-06-03T16:37:05.597Z,2.37
2018-06-03T16:39:34.489Z,2.40
2018-06-03T16:42:03.312Z,2.70
2018-06-03T16:44:32.199Z,2.75
2018-06-03T16:47:01.537Z,2.50
2018-06-03T16:49:30.364Z,2.60
2018-06-03T16:51:59.318Z,3.10
2018-06-03T16:54:28.204Z,2.50
2018-06-03T16:56:57.086Z,2.83
2018-06-03T16:59:31.158Z,3.60
2018-06-03T17:02:07.345Z,2.58
2018-06-03T17:04:36.211Z,2.60
2018-06-03T17:07:05.389Z,2.70
2018-06-03T17:12:47.355Z,2.40
2018-06-03T17:15:16.342Z,2.50
2018-06-03T17:17:45.441Z,2.30
2018-06-03T17:20:14.216Z,2.42
2018-06-03T17:22:43.109Z,2.47
2018-06-03T17:25:19.201Z,2.52
2018-06-03T17:27:48.184Z,2.42
2018-06-03T17:30:24.318Z,2.58
2018-06-03T17:32:53.199Z,2.35
2018-06-03T17:35:22.059Z,2.55
2018-06-03T17:37:50.914Z,2.70
2018-06-03T17:40:28.079Z,2.50
2018-06-03T17:42:58.894Z,2.40
2018-06-03T17:45:34.161Z,2.57
2018-06-03T17:48:02.989Z,2.30
2018-06-03T17:50:31.856Z,2.50
2018-06-03T17:53:12.202Z,2.43
2018-06-03T17:55:41.150Z,2.40
2018-06-03T17:58:10.018Z,2.13
2018-06-03T18:00:38.922Z,2.43
2018-06-03T18:03:07.370Z,2.40
2018-06-03T18:05:36.207Z,2.73
2018-06-03T18:08:05.112Z,2.50
2018-06-03T18:10:34.077Z,2.67
2018-06-03T18:13:02.936Z,2.50
2018-06-03T18:15:32.034Z,2.67
2018-06-03T18:18:00.960Z,2.67
2018-06-03T18:20:29.773Z,2.57
2018-06-03T18:22:58.637Z,2.47
2018-06-03T18:25:27.493Z,2.60
2018-06-03T18:27:56.338Z,2.80
2018-06-03T18:30:25.108Z,2.70
2018-06-03T18:32:53.896Z,2.60
2018-06-03T18:35:22.728Z,2.67
2018-06-03T18:37:51.504Z,2.52
2018-06-03T18:40:20.274Z,2.80
2018-06-03T18:42:48.665Z,2.70
2018-06-03T18:45:21.370Z,3.00
2018-06-03T18:47:50.350Z,2.60
2018-06-03T18:50:19.148Z,2.80
2018-06-03T18:52:48.007Z,2.70
2018-06-03T18:55:17.019Z,2.93
2018-06-03T18:57:45.801Z,2.40
2018-06-03T19:00:14.685Z,2.90
2018-06-03T19:02:44.200Z,2.60
2018-06-03T19:05:13.027Z,2.87
2018-06-03T19:07:42.111Z,2.93
2018-06-03T19:10:10.989Z,2.90
2018-06-03T19:12:39.775Z,2.80
2018-06-03T19:15:08.726Z,2.70
2018-06-03T19:17:37.158Z,2.60
2018-06-03T19:20:06.193Z,3.07
2018-06-03T19:23:20.282Z,2.70
2018-06-03T19:25:50.543Z,3.03
2018-06-03T19:28:19.682Z,2.93
2018-06-03T19:30:48.514Z,2.97
2018-06-03T19:33:17.439Z,2.80
2018-06-03T19:35:46.744Z,2.90
2018-06-03T19:38:15.150Z,2.70
2018-06-03T19:40:44.035Z,2.70
2018-06-03T19:43:12.916Z,3.08
2018-06-03T19:45:42.786Z,3.00
2018-06-03T19:48:11.655Z,2.53
2018-06-03T19:50:42.556Z,2.83
2018-06-03T19:53:13.167Z,3.00
2018-06-03T19:55:42.154Z,2.73
2018-06-03T19:58:11.017Z,3.30
2018-06-03T20:00:40.090Z,3.00
2018-06-03T20:03:09.142Z,2.90
2018-06-03T20:05:37.958Z,2.70
2018-06-03T20:08:10.872Z,2.80
2018-06-03T20:10:39.669Z,2.70
2018-06-03T20:13:09.009Z,2.50
2018-06-03T20:15:38.644Z,2.77
2018-06-03T20:18:07.779Z,3.00
2018-06-03T20:20:37.225Z,2.40
2018-06-03T20:23:08.609Z,2.75
2018-06-03T20:25:37.430Z,2.70
2018-06-03T20:28:07.321Z,2.70
2018-06-03T20:30:36.600Z,2.80
2018-06-03T20:33:13.227Z,2.50
2018-06-03T20:35:42.071Z,2.60
2018-06-03T20:38:10.981Z,2.97
2018-06-03T20:40:40.288Z,3.23
2018-06-03T20:43:09.741Z,3.23
2018-06-03T20:45:38.727Z,3.43
2018-06-03T20:48:07.900Z,3.17
2018-06-03T20:50:37.231Z,2.80
2018-06-03T20:53:06.062Z,3.13
2018-06-03T20:55:35.008Z,3.00
2018-06-03T20:58:03.787Z,3.40
2018-06-03T21:00:35.439Z,3.00
2018-06-03T21:03:07.557Z,3.30
2018-06-03T21:05:37.007Z,2.80
2018-06-03T21:08:06.037Z,2.87
2018-06-03T21:10:34.883Z,2.80
2018-06-03T21:13:03.946Z,3.30
2018-06-03T21:15:32.849Z,3.10
2018-06-03T21:18:01.778Z,3.60
2018-06-03T21:20:30.655Z,3.80
2018-06-03T21:23:07.549Z,3.90
2018-06-03T21:25:36.415Z,4.20
2018-06-03T21:28:05.309Z,3.73
2018-06-03T21:30:34.426Z,3.10
2018-06-03T21:33:03.347Z,3.90
2018-06-03T21:35:38.998Z,3.60
2018-06-03T21:38:07.856Z,3.50
2018-06-03T21:40:36.898Z,3.90
2018-06-03T21:43:05.879Z,3.60
2018-06-03T21:45:34.826Z,3.70
2018-06-03T21:48:03.526Z,4.10
2018-06-03T21:50:31.930Z,3.60
2018-06-03T21:53:00.799Z,3.70
2018-06-03T21:55:29.666Z,3.60
2018-06-03T21:57:58.500Z,3.97
2018-06-03T22:00:27.347Z,3.90
2018-06-03T22:02:56.538Z,4.25
2018-06-03T22:05:27.453Z,4.40
2018-06-03T22:07:56.294Z,4.20
2018-06-03T22:10:25.085Z,4.13
2018-06-03T22:12:54.020Z,4.00
2018-06-03T22:15:22.865Z,4.30
2018-06-03T22:17:51.760Z,4.50
2018-06-03T22:20:21.063Z,4.57
2018-06-03T22:22:50.159Z,4.07
2018-06-03T22:25:18.980Z,4.00
2018-06-03T22:27:47.801Z,4.20
2018-06-03T22:30:16.670Z,4.70
2018-06-03T22:32:45.544Z,4.80
2018-06-03T22:35:14.408Z,4.70
2018-06-03T22:37:43.222Z,4.83
2018-06-03T22:40:12.272Z,5.07
2018-06-03T22:42:41.044Z,4.70
2018-06-03T22:45:09.908Z,4.57
2018-06-03T22:47:43.132Z,4.80
2018-06-03T22:50:11.639Z,3.90
2018-06-03T22:52:40.431Z,4.70
2018-06-03T22:55:09.570Z,4.83
2018-06-03T22:57:51.254Z,3.77
2018-06-03T23:00:33.570Z,3.83
2018-06-03T23:03:07.642Z,4.17
2018-06-03T23:05:36.840Z,5.20
2018-06-03T23:08:05.623Z,4.90
2018-06-03T23:10:34.488Z,4.10
2018-06-03T23:13:03.298Z,4.73
2018-06-03T23:15:40.406Z,5.30
2018-06-03T23:18:09.109Z,5.60
2018-06-03T23:20:43.382Z,4.67
2018-06-03T23:23:15.107Z,5.00
2018-06-03T23:25:44.090Z,5.47
2018-06-03T23:28:13.092Z,5.80
2018-06-03T23:30:41.996Z,5.60
2018-06-03T23:33:10.764Z,5.50
2018-06-03T23:35:52.232Z,5.60
2018-06-03T23:38:21.094Z,5.50
2018-06-03T23:40:49.958Z,5.77
2018-06-03T23:43:18.758Z,6.20
2018-06-03T23:45:47.556Z,6.00
2018-06-03T23:48:16.318Z,5.53
2018-06-03T23:50:45.285Z,5.80
2018-06-03T23:53:14.094Z,6.10
2018-06-03T23:55:42.895Z,6.20
2018-06-03T23:58:11.780Z,6.17
